Time;durP1;ratioP1;P1;durP2;ratioP2;P2;SDS_P1;SDS_P2;PMS_P1;PMS_P2;Temp;Humidity;BMP_temperature;BMP_pressure;BME280_temperature;BME280_humidity;BME280_pressure;Samples;Min_cycle;Max_cycle;Signal;HPM_P1;HPM_P2
2022/11/15 00:01:08;;;;;;;81.73;47.53;;;10.40;99.90;;;;;;6201733;28;20472;-58
2022/11/15 00:04:12;;;;;;;76.47;48.00;;;10.40;99.90;;;;;;6185112;28;20482;-59
2022/11/15 00:07:15;;;;;;;88.07;49.77;;;10.30;99.90;;;;;;6177755;28;20478;-59
2022/11/15 00:10:39;;;;;;;77.37;46.30;;;10.20;99.90;;;;;;6177651;28;20533;-59
2022/11/15 00:13:43;;;;;;;78.23;44.80;;;10.30;99.90;;;;;;6177700;28;20513;-59
2022/11/15 00:16:46;;;;;;;70.77;44.77;;;10.30;99.90;;;;;;6199970;28;20499;-59
2022/11/15 00:19:50;;;;;;;79.90;47.87;;;10.30;99.90;;;;;;6201356;28;20525;-58
2022/11/15 00:22:53;;;;;;;71.07;44.17;;;10.30;99.90;;;;;;6201919;28;20511;-58
2022/11/15 00:25:58;;;;;;;81.00;47.40;;;10.40;99.90;;;;;;6201254;28;20469;-58
2022/11/15 00:29:01;;;;;;;81.80;44.87;;;10.50;99.90;;;;;;6201128;28;20814;-58
2022/11/15 00:32:05;;;;;;;70.83;42.97;;;10.50;99.90;;;;;;6201524;28;20479;-58
2022/11/15 00:35:09;;;;;;;72.70;44.17;;;10.50;99.90;;;;;;6201179;28;20475;-59
2022/11/15 00:38:12;;;;;;;69.43;44.60;;;10.50;99.90;;;;;;6200917;28;20547;-58
2022/11/15 00:41:16;;;;;;;68.83;46.10;;;10.60;99.90;;;;;;6201454;28;20489;-57
2022/11/15 00:44:20;;;;;;;81.37;49.33;;;10.60;99.90;;;;;;6201329;28;20481;-59
2022/11/15 00:47:23;;;;;;;87.73;54.93;;;10.60;99.90;;;;;;6201346;28;20469;-59
2022/11/15 00:50:26;;;;;;;72.40;46.27;;;10.50;99.90;;;;;;6203997;28;20819;-57
2022/11/15 00:53:29;;;;;;;78.17;48.20;;;10.50;99.90;;;;;;6210438;28;20976;-58
2022/11/15 00:56:34;;;;;;;74.70;45.93;;;10.50;99.90;;;;;;6211328;28;20469;-59
2022/11/15 00:59:38;;;;;;;75.70;44.17;;;10.50;99.90;;;;;;6202712;28;20477;-59
2022/11/15 01:02:41;;;;;;;72.27;46.77;;;10.50;99.90;;;;;;6212555;28;20483;-58
2022/11/15 01:05:44;;;;;;;74.40;45.70;;;10.50;99.90;;;;;;6211232;28;20855;-59
2022/11/15 01:08:47;;;;;;;78.23;45.40;;;10.60;99.90;;;;;;6212245;28;20818;-59
2022/11/15 01:11:51;;;;;;;78.50;45.37;;;10.70;99.90;;;;;;6211730;28;20472;-59
2022/11/15 01:14:55;;;;;;;70.83;44.43;;;10.70;99.90;;;;;;6211649;28;20867;-58
2022/11/15 01:17:58;;;;;;;71.13;44.00;;;10.80;99.90;;;;;;6201527;28;20488;-58
2022/11/15 01:21:06;;;;;;;63.23;41.40;;;10.90;99.90;;;;;;6200684;28;20483;-58
2022/11/15 01:24:13;;;;;;;70.60;44.60;;;11.00;99.90;;;;;;6200150;28;20897;-62
2022/11/15 01:27:18;;;;;;;70.83;45.20;;;11.10;99.90;;;;;;6204288;28;20484;-61
2022/11/15 01:30:21;;;;;;;64.63;40.63;;;11.10;99.90;;;;;;6212632;28;20480;-61
2022/11/15 01:33:24;;;;;;;65.63;46.00;;;11.10;99.90;;;;;;6210791;28;20473;-61
2022/11/15 01:36:28;;;;;;;74.20;46.40;;;11.10;99.90;;;;;;6212814;28;20484;-62
2022/11/15 01:39:31;;;;;;;74.17;44.30;;;11.10;99.90;;;;;;6216955;28;20991;-63
2022/11/15 01:42:35;;;;;;;86.03;50.73;;;11.00;99.90;;;;;;6218327;28;20531;-63
2022/11/15 01:45:38;;;;;;;70.83;45.53;;;11.00;99.90;;;;;;6215270;28;20476;-59
2022/11/15 01:48:42;;;;;;;74.73;48.63;;;10.90;99.90;;;;;;6211744;28;20475;-63
2022/11/15 01:51:45;;;;;;;73.53;45.87;;;10.90;99.90;;;;;;6206712;28;20481;-63
2022/11/15 01:54:51;;;;;;;71.73;45.50;;;10.90;99.90;;;;;;6204212;28;20488;-63
2022/11/15 01:57:59;;;;;;;83.50;52.20;;;10.90;99.90;;;;;;6204030;28;20488;-63
2022/11/15 02:01:02;;;;;;;88.30;53.30;;;10.90;99.90;;;;;;6204150;28;20964;-63
2022/11/15 02:04:12;;;;;;;82.13;50.10;;;10.90;99.90;;;;;;6206775;28;20574;-62
2022/11/15 02:07:18;;;;;;;83.00;48.33;;;10.80;99.90;;;;;;6219906;28;20483;-63
2022/11/15 02:10:24;;;;;;;94.47;55.60;;;10.80;99.90;;;;;;6214681;28;20475;-63
2022/11/15 02:13:29;;;;;;;85.90;49.90;;;10.80;99.90;;;;;;6214346;28;20773;-62
2022/11/15 02:16:49;;;;;;;83.77;48.90;;;10.80;99.90;;;;;;6217710;28;20468;-63
2022/11/15 02:20:43;;;;;;;84.80;45.90;;;10.70;99.90;;;;;;6215805;28;20530;-63
2022/11/15 02:24:28;;;;;;;89.07;48.70;;;10.70;99.90;;;;;;6179396;28;20478;-62
2022/11/15 02:28:07;;;;;;;87.07;48.80;;;10.60;99.90;;;;;;6164958;28;20470;-62
2022/11/15 02:31:19;;;;;;;81.20;46.97;;;10.60;99.90;;;;;;6179045;28;20474;-62
2022/11/15 02:34:29;;;;;;;81.13;48.60;;;10.70;99.90;;;;;;6179363;28;20481;-62
2022/11/15 02:37:40;;;;;;;78.43;46.90;;;10.70;99.90;;;;;;6178763;28;20906;-63
2022/11/15 02:40:53;;;;;;;81.40;47.30;;;10.70;99.90;;;;;;6180796;28;20422;-63
2022/11/15 02:44:03;;;;;;;82.73;48.93;;;10.60;99.90;;;;;;6179089;28;20509;-62
2022/11/15 02:47:15;;;;;;;78.97;47.43;;;10.60;99.90;;;;;;6177998;28;20473;-62
2022/11/15 02:50:22;;;;;;;76.73;45.80;;;10.60;99.90;;;;;;6179051;28;20470;-63
2022/11/15 02:53:26;;;;;;;77.40;46.63;;;10.50;99.90;;;;;;6178767;28;20985;-63
2022/11/15 02:56:29;;;;;;;82.83;47.20;;;10.60;99.90;;;;;;6178847;28;21273;-63
2022/11/15 02:59:49;;;;;;;76.87;47.07;;;10.50;99.90;;;;;;6178499;28;20469;-63
2022/11/15 03:03:09;;;;;;;83.20;48.60;;;10.60;99.90;;;;;;6178668;28;20474;-63
2022/11/15 03:06:23;;;;;;;83.23;47.57;;;10.60;99.90;;;;;;6211562;28;20474;-62
2022/11/15 03:09:35;;;;;;;81.70;48.03;;;10.60;99.90;;;;;;6218021;28;20479;-62
2022/11/15 03:12:45;;;;;;;83.30;50.00;;;10.60;99.90;;;;;;6226659;28;20852;-62
2022/11/15 03:15:58;;;;;;;92.67;49.47;;;10.60;99.90;;;;;;6217753;28;20481;-62
2022/11/15 03:19:07;;;;;;;88.30;48.67;;;10.50;99.90;;;;;;6212220;28;20477;-63
2022/11/15 03:22:15;;;;;;;87.50;48.80;;;10.50;99.90;;;;;;6203913;28;21010;-64
2022/11/15 03:25:21;;;;;;;86.13;47.87;;;10.50;99.90;;;;;;6207642;28;20481;-63
2022/11/15 03:28:30;;;;;;;78.17;45.70;;;10.50;99.90;;;;;;6213855;28;20460;-63
2022/11/15 03:31:49;;;;;;;85.37;47.37;;;10.50;99.90;;;;;;6215504;28;20452;-63
2022/11/15 03:34:59;;;;;;;88.43;50.57;;;10.50;99.90;;;;;;6213957;28;20481;-62
2022/11/15 03:38:09;;;;;;;76.97;48.57;;;10.50;99.90;;;;;;6225249;28;20480;-63
2022/11/15 03:41:22;;;;;;;80.97;46.60;;;10.60;99.90;;;;;;6215939;28;20471;-63
2022/11/15 03:44:35;;;;;;;84.80;47.67;;;10.70;99.90;;;;;;6215399;28;20476;-63
2022/11/15 03:47:42;;;;;;;80.23;47.63;;;10.80;99.90;;;;;;6214388;28;20476;-63
2022/11/15 03:50:48;;;;;;;77.40;46.20;;;10.70;99.90;;;;;;6214872;28;20608;-63
2022/11/15 03:53:51;;;;;;;79.37;48.57;;;10.70;99.90;;;;;;6218053;28;20473;-64
2022/11/15 03:56:55;;;;;;;80.93;52.70;;;10.70;99.90;;;;;;6215677;28;20472;-63
2022/11/15 03:59:58;;;;;;;81.10;47.33;;;10.70;99.90;;;;;;6224692;28;20472;-63
2022/11/15 04:03:01;;;;;;;81.37;48.60;;;10.70;99.90;;;;;;6211068;28;20477;-63
2022/11/15 04:06:06;;;;;;;92.80;50.10;;;10.70;99.90;;;;;;6212611;28;20479;-63
2022/11/15 04:09:09;;;;;;;79.93;50.17;;;10.70;99.90;;;;;;6210194;28;20519;-63
2022/11/15 04:12:12;;;;;;;77.20;47.33;;;10.50;99.90;;;;;;6203484;28;20465;-63
2022/11/15 04:15:18;;;;;;;93.60;48.97;;;10.50;99.90;;;;;;6213867;28;20491;-64
2022/11/15 04:18:21;;;;;;;84.60;47.23;;;10.50;99.90;;;;;;6213623;28;20469;-63
2022/11/15 04:24:46;;;;;;;93.57;50.00;;;10.40;99.90;;;;;;6225999;28;20508;-63
2022/11/15 04:27:49;;;;;;;92.67;50.23;;;10.40;99.90;;;;;;6225929;28;20510;-63
2022/11/15 04:30:52;;;;;;;104.07;55.20;;;10.40;99.90;;;;;;6225928;28;20464;-63
2022/11/15 04:33:56;;;;;;;92.33;49.57;;;10.40;99.90;;;;;;6201357;28;20608;-63
2022/11/15 04:37:12;;;;;;;95.60;49.93;;;10.40;99.90;;;;;;6201109;28;20464;-63
2022/11/15 04:40:16;;;;;;;92.50;48.83;;;10.40;99.90;;;;;;6201206;28;20981;-63
2022/11/15 04:43:19;;;;;;;101.93;50.63;;;10.40;99.90;;;;;;6200880;28;20809;-63
2022/11/15 04:46:23;;;;;;;95.40;51.47;;;10.30;99.90;;;;;;6201435;28;20810;-63
2022/11/15 04:49:26;;;;;;;106.20;52.30;;;10.40;99.90;;;;;;6201283;28;20469;-63
2022/11/15 04:52:31;;;;;;;91.93;49.30;;;10.40;99.90;;;;;;6201335;28;20488;-63
2022/11/15 04:55:34;;;;;;;106.93;51.73;;;10.30;99.90;;;;;;6201317;28;20491;-63
2022/11/15 04:58:37;;;;;;;104.97;50.90;;;10.30;99.90;;;;;;6211411;28;20452;-63
2022/11/15 05:01:40;;;;;;;103.00;50.77;;;10.30;99.90;;;;;;6236718;28;20443;-63
2022/11/15 05:04:47;;;;;;;101.50;52.27;;;10.30;99.90;;;;;;6231104;28;20822;-62
2022/11/15 05:07:52;;;;;;;111.70;52.87;;;10.30;99.90;;;;;;6235903;28;20850;-62
2022/11/15 05:10:55;;;;;;;92.03;50.03;;;10.30;99.90;;;;;;6239750;28;20469;-62
2022/11/15 05:13:58;;;;;;;100.23;52.33;;;10.30;99.90;;;;;;6240846;28;20518;-62
2022/11/15 05:17:01;;;;;;;90.70;47.20;;;10.30;99.90;;;;;;6241950;28;20552;-62
2022/11/15 05:20:06;;;;;;;89.87;49.93;;;10.30;99.90;;;;;;6242427;28;20989;-63
2022/11/15 05:23:10;;;;;;;85.00;47.87;;;10.30;99.90;;;;;;6240583;28;20479;-63
2022/11/15 05:26:16;;;;;;;99.30;49.80;;;10.30;99.90;;;;;;6241003;28;20483;-63
2022/11/15 05:29:19;;;;;;;98.83;51.70;;;10.30;99.90;;;;;;6238866;28;20468;-63
2022/11/15 05:32:22;;;;;;;97.33;49.63;;;10.30;99.90;;;;;;6239597;28;20530;-63
2022/11/15 05:35:31;;;;;;;98.47;50.17;;;10.30;99.90;;;;;;6242469;28;20545;-62
2022/11/15 05:38:36;;;;;;;118.97;53.07;;;10.20;99.90;;;;;;6242808;28;20471;-63
2022/11/15 05:41:42;;;;;;;94.50;48.40;;;10.30;99.90;;;;;;6249102;28;20510;-63
2022/11/15 05:44:50;;;;;;;106.27;55.73;;;10.30;99.90;;;;;;6240503;28;20611;-62
2022/11/15 05:47:56;;;;;;;103.07;51.53;;;10.30;99.90;;;;;;6235881;28;20553;-62
2022/11/15 05:51:00;;;;;;;109.10;51.20;;;10.30;99.90;;;;;;6236246;28;20472;-62
2022/11/15 05:54:05;;;;;;;112.73;52.10;;;10.20;99.90;;;;;;6237470;28;20480;-62
2022/11/15 05:57:08;;;;;;;102.67;50.17;;;10.20;99.90;;;;;;6232081;28;20472;-63
2022/11/15 06:00:13;;;;;;;107.53;49.60;;;10.20;99.90;;;;;;6229423;28;20490;-62
2022/11/15 06:03:16;;;;;;;92.10;49.40;;;10.20;99.90;;;;;;6229530;28;20537;-63
2022/11/15 06:06:19;;;;;;;109.53;51.10;;;10.10;99.90;;;;;;6228775;28;20476;-63
2022/11/15 06:09:23;;;;;;;95.03;49.50;;;10.00;99.90;;;;;;6228822;28;20955;-63
2022/11/15 06:12:27;;;;;;;109.43;55.57;;;9.90;99.90;;;;;;6228996;28;20472;-63
2022/11/15 06:15:30;;;;;;;108.23;50.77;;;9.90;99.90;;;;;;6228713;28;20955;-63
2022/11/15 06:18:34;;;;;;;103.10;54.83;;;9.90;99.90;;;;;;6228809;28;20479;-62
2022/11/15 06:21:37;;;;;;;112.27;49.87;;;10.00;99.90;;;;;;6228658;28;20472;-62
2022/11/15 06:24:43;;;;;;;91.20;47.67;;;10.00;99.90;;;;;;6228565;28;20491;-63
2022/11/15 06:27:52;;;;;;;92.93;46.30;;;10.10;99.90;;;;;;6228532;28;20473;-63
2022/11/15 06:30:55;;;;;;;83.97;43.87;;;10.00;99.90;;;;;;6228539;28;20475;-63
2022/11/15 06:33:58;;;;;;;85.10;43.50;;;10.00;99.90;;;;;;6227707;28;20478;-62
2022/11/15 06:37:01;;;;;;;83.60;45.57;;;9.90;99.90;;;;;;6228015;28;20483;-62
2022/11/15 06:40:07;;;;;;;83.90;46.30;;;9.90;99.90;;;;;;6227603;28;20488;-63
2022/11/15 06:43:10;;;;;;;81.70;42.87;;;9.90;99.90;;;;;;6227748;28;20476;-62
2022/11/15 06:46:14;;;;;;;78.07;42.73;;;9.90;99.90;;;;;;6227578;28;20475;-62
2022/11/15 06:49:17;;;;;;;79.43;46.83;;;10.00;99.90;;;;;;6227560;28;20487;-63
2022/11/15 06:52:21;;;;;;;83.90;41.33;;;9.80;99.90;;;;;;6227691;28;20850;-62
2022/11/15 06:55:26;;;;;;;75.03;41.43;;;9.90;99.90;;;;;;6227355;28;20483;-62
2022/11/15 06:58:29;;;;;;;83.67;44.77;;;9.90;99.90;;;;;;6227413;28;20538;-62
2022/11/15 07:01:32;;;;;;;76.23;43.87;;;9.90;99.90;;;;;;6227329;28;20542;-62
2022/11/15 07:04:36;;;;;;;71.77;40.60;;;9.90;99.90;;;;;;6227229;28;20470;-62
2022/11/15 07:07:39;;;;;;;70.83;40.87;;;9.90;99.90;;;;;;6227144;28;20514;-62
2022/11/15 07:10:43;;;;;;;74.87;40.30;;;9.80;99.90;;;;;;6227184;28;20927;-62
2022/11/15 07:13:46;;;;;;;78.20;41.30;;;9.80;99.90;;;;;;6227054;28;20575;-62
2022/11/15 07:16:49;;;;;;;76.83;41.67;;;9.90;99.90;;;;;;6227600;28;20458;-63
2022/11/15 07:19:53;;;;;;;74.10;39.97;;;10.00;99.90;;;;;;6227073;28;20473;-62
2022/11/15 07:23:00;;;;;;;73.77;39.27;;;10.10;99.90;;;;;;6222956;28;20798;-62
2022/11/15 07:26:06;;;;;;;74.93;40.27;;;10.20;99.90;;;;;;6226710;28;20488;-63
2022/11/15 07:29:09;;;;;;;69.07;39.27;;;10.20;99.90;;;;;;6227195;28;20517;-63
2022/11/15 07:32:12;;;;;;;71.97;39.10;;;10.30;99.90;;;;;;6226695;28;20534;-63
2022/11/15 07:35:15;;;;;;;79.53;41.63;;;10.40;99.90;;;;;;6226085;28;20476;-63
2022/11/15 07:38:20;;;;;;;65.70;37.87;;;10.50;99.90;;;;;;6226721;28;20476;-63
2022/11/15 07:41:24;;;;;;;71.30;37.83;;;10.50;99.90;;;;;;6226820;28;20484;-62
2022/11/15 07:44:27;;;;;;;72.97;40.83;;;10.50;99.90;;;;;;6226922;28;20476;-62
2022/11/15 07:47:31;;;;;;;63.50;38.87;;;10.60;99.90;;;;;;6226229;28;20975;-63
2022/11/15 07:50:34;;;;;;;69.40;37.97;;;10.60;99.90;;;;;;6226291;28;20820;-63
2022/11/15 07:53:37;;;;;;;74.43;41.13;;;10.60;99.90;;;;;;6226465;28;20480;-62
2022/11/15 07:56:41;;;;;;;68.00;39.90;;;10.70;99.90;;;;;;6226705;28;20479;-63
2022/11/15 07:59:44;;;;;;;67.93;38.67;;;10.80;99.90;;;;;;6226459;28;20480;-63
2022/11/15 08:02:48;;;;;;;73.03;40.47;;;10.80;99.90;;;;;;6226734;28;20476;-63
2022/11/15 08:05:52;;;;;;;81.33;42.83;;;10.80;99.90;;;;;;6226204;28;20483;-63
2022/11/15 08:08:55;;;;;;;78.17;45.07;;;10.90;99.90;;;;;;6233018;28;20472;-63
2022/11/15 08:12:00;;;;;;;77.27;43.60;;;10.90;99.90;;;;;;6235951;28;20472;-63
2022/11/15 08:15:03;;;;;;;73.33;40.23;;;10.90;99.90;;;;;;6226049;28;20487;-63
2022/11/15 08:18:11;;;;;;;73.90;40.60;;;10.90;99.90;;;;;;6226174;28;20475;-63
2022/11/15 08:21:18;;;;;;;77.97;42.30;;;10.90;99.90;;;;;;6225889;28;20495;-64
2022/11/15 08:24:22;;;;;;;76.87;40.13;;;10.80;99.90;;;;;;6225451;28;20480;-62
2022/11/15 08:27:26;;;;;;;77.37;43.40;;;10.80;99.90;;;;;;6225562;28;20491;-63
2022/11/15 08:30:30;;;;;;;82.60;43.37;;;10.70;99.90;;;;;;6225423;28;20553;-63
2022/11/15 08:33:34;;;;;;;72.00;42.13;;;10.70;99.90;;;;;;6225401;28;20476;-63
2022/11/15 08:36:37;;;;;;;81.23;41.10;;;10.70;99.90;;;;;;6225185;28;20479;-63
2022/11/15 08:39:48;;;;;;;70.47;39.13;;;10.80;99.90;;;;;;6225588;28;20479;-63
2022/11/15 08:42:52;;;;;;;74.00;42.20;;;10.80;99.90;;;;;;6225251;28;20480;-63
2022/11/15 08:45:57;;;;;;;67.43;39.83;;;10.80;99.90;;;;;;6225251;28;20487;-63
2022/11/15 08:49:00;;;;;;;67.20;38.17;;;10.80;99.90;;;;;;6225155;28;20484;-63
2022/11/15 08:52:03;;;;;;;68.80;39.27;;;10.90;99.90;;;;;;6224907;28;20468;-62
2022/11/15 08:55:07;;;;;;;72.13;40.70;;;11.00;99.90;;;;;;6225207;28;20491;-62
2022/11/15 08:58:12;;;;;;;64.40;39.20;;;11.00;99.90;;;;;;6225056;28;20475;-63
2022/11/15 09:01:17;;;;;;;68.50;37.87;;;11.10;99.90;;;;;;6224162;28;20484;-64
2022/11/15 09:04:21;;;;;;;67.77;40.53;;;11.20;99.90;;;;;;6202641;28;20824;-64
2022/11/15 09:07:24;;;;;;;71.13;39.87;;;11.20;99.90;;;;;;6200727;28;20483;-64
2022/11/15 09:10:28;;;;;;;74.20;41.80;;;11.20;99.90;;;;;;6200735;28;20821;-64
2022/11/15 09:13:33;;;;;;;78.10;45.10;;;11.30;99.90;;;;;;6200653;28;20483;-64
2022/11/15 09:16:37;;;;;;;78.80;46.67;;;11.20;99.90;;;;;;6200282;28;20460;-64
2022/11/15 09:19:41;;;;;;;74.60;44.60;;;11.20;99.90;;;;;;6200517;28;20437;-62
2022/11/15 09:22:44;;;;;;;81.27;46.07;;;11.20;99.90;;;;;;6227704;28;20846;-62
2022/11/15 09:25:47;;;;;;;88.87;47.63;;;11.10;99.90;;;;;;6233122;28;20463;-62
2022/11/15 09:28:52;;;;;;;92.57;47.47;;;11.00;99.90;;;;;;6236769;28;20440;-62
2022/11/15 09:31:55;;;;;;;96.53;46.17;;;10.90;99.90;;;;;;6226312;28;20448;-62
2022/11/15 09:34:58;;;;;;;88.40;45.93;;;10.90;99.90;;;;;;6221403;28;20947;-62
2022/11/15 09:38:01;;;;;;;82.47;48.80;;;11.00;99.90;;;;;;6199832;28;20468;-61
2022/11/15 09:41:38;;;;;;;83.47;46.43;;;11.00;99.90;;;;;;6200398;28;20485;-65
2022/11/15 09:45:05;;;;;;;82.70;48.23;;;11.00;99.90;;;;;;6200074;28;20487;-64
2022/11/15 09:48:32;;;;;;;94.80;48.00;;;11.00;99.90;;;;;;6199884;28;20470;-64
2022/11/15 09:51:46;;;;;;;88.97;48.57;;;10.90;99.90;;;;;;6200374;28;20536;-65
2022/11/15 09:54:52;;;;;;;100.83;49.97;;;10.90;99.90;;;;;;6199926;28;20499;-64
2022/11/15 09:58:06;;;;;;;89.20;48.30;;;10.90;99.90;;;;;;6204038;28;20473;-65
2022/11/15 10:01:18;;;;;;;88.53;45.67;;;10.90;99.90;;;;;;6203649;28;20484;-63
2022/11/15 10:04:22;;;;;;;82.67;44.90;;;10.90;99.90;;;;;;6203719;28;20477;-63
2022/11/15 10:07:30;;;;;;;85.70;47.70;;;11.00;99.90;;;;;;6204191;28;20798;-65
2022/11/15 10:10:40;;;;;;;79.20;44.67;;;11.00;99.90;;;;;;6182647;28;20488;-65
2022/11/15 10:13:45;;;;;;;77.43;41.50;;;11.10;99.90;;;;;;6179949;28;20457;-62
2022/11/15 10:17:28;;;;;;;70.97;41.63;;;11.20;99.90;;;;;;6179846;28;20422;-63
2022/11/15 10:20:36;;;;;;;73.80;41.23;;;11.30;99.90;;;;;;6141917;28;20538;-63
2022/11/15 10:23:39;;;;;;;82.60;44.40;;;11.60;99.90;;;;;;6191044;28;20474;-62
2022/11/15 10:26:47;;;;;;;73.00;40.20;;;11.80;99.90;;;;;;6190118;28;20998;-62
2022/11/15 10:29:51;;;;;;;65.40;39.10;;;12.00;99.90;;;;;;6189223;28;20476;-63
2022/11/15 10:33:06;;;;;;;64.97;38.90;;;12.10;99.90;;;;;;6188408;28;20489;-63
2022/11/15 10:36:21;;;;;;;70.03;41.83;;;12.10;99.90;;;;;;6197501;28;20496;-63
2022/11/15 10:39:25;;;;;;;69.07;41.90;;;12.20;99.90;;;;;;6194868;28;20489;-63
2022/11/15 10:42:30;;;;;;;66.33;36.87;;;12.20;99.90;;;;;;6190467;28;20480;-62
2022/11/15 10:45:35;;;;;;;60.13;39.90;;;12.20;99.90;;;;;;6200027;28;20481;-62
2022/11/15 10:48:40;;;;;;;54.47;34.70;;;12.00;99.90;;;;;;6197728;28;20472;-63
2022/11/15 10:51:46;;;;;;;51.47;33.87;;;11.90;99.90;;;;;;6189891;28;20488;-62
2022/11/15 10:54:54;;;;;;;63.53;39.40;;;12.00;99.90;;;;;;6188600;28;20592;-62
2022/11/15 10:58:03;;;;;;;61.37;38.80;;;12.00;99.90;;;;;;6189474;28;21010;-62
2022/11/15 11:01:16;;;;;;;58.73;35.90;;;12.10;99.90;;;;;;6189712;28;20488;-62
2022/11/15 11:04:21;;;;;;;49.40;32.47;;;12.00;99.90;;;;;;6189555;28;20470;-62
2022/11/15 11:07:26;;;;;;;50.50;32.70;;;11.90;99.90;;;;;;6187956;28;20470;-62
2022/11/15 11:10:29;;;;;;;57.93;35.10;;;11.80;99.90;;;;;;6188502;28;20952;-62
2022/11/15 11:13:53;;;;;;;53.73;32.50;;;11.40;99.90;;;;;;6188197;28;20540;-62
2022/11/15 11:17:03;;;;;;;52.90;33.20;;;11.10;99.90;;;;;;6190699;28;20457;-63
2022/11/15 11:20:18;;;;;;;54.27;33.07;;;11.30;99.90;;;;;;6188439;28;20473;-62
2022/11/15 11:23:36;;;;;;;55.37;37.17;;;11.50;99.90;;;;;;6189623;28;20480;-62
2022/11/15 11:26:47;;;;;;;55.80;35.20;;;11.80;99.90;;;;;;6187934;28;20537;-62
2022/11/15 11:30:05;;;;;;;56.57;36.60;;;11.90;99.90;;;;;;6187530;28;20489;-62
2022/11/15 11:33:17;;;;;;;56.03;35.50;;;12.00;99.90;;;;;;6187763;28;20497;-63
2022/11/15 11:36:28;;;;;;;52.83;33.33;;;12.10;99.90;;;;;;6187721;28;20493;-62
2022/11/15 11:39:41;;;;;;;50.83;32.63;;;12.20;99.90;;;;;;6189869;28;20474;-63
2022/11/15 11:42:58;;;;;;;49.67;32.67;;;12.10;99.90;;;;;;6187946;28;20586;-63
2022/11/15 11:46:18;;;;;;;48.27;33.70;;;12.00;99.90;;;;;;6193662;28;20950;-62
2022/11/15 11:49:27;;;;;;;45.57;33.10;;;12.00;99.90;;;;;;6187212;28;20488;-63
2022/11/15 11:52:39;;;;;;;49.07;32.20;;;12.00;99.90;;;;;;6187768;28;20474;-63
2022/11/15 11:55:45;;;;;;;49.87;31.97;;;12.00;99.90;;;;;;6186655;28;20473;-62
2022/11/15 11:58:51;;;;;;;49.87;33.13;;;11.70;99.90;;;;;;6186798;28;20438;-62
2022/11/15 12:01:55;;;;;;;46.53;33.53;;;11.80;99.90;;;;;;6186911;28;20441;-62
2022/11/15 12:05:08;;;;;;;43.43;30.07;;;11.80;99.90;;;;;;6185819;28;20471;-62
2022/11/15 12:08:28;;;;;;;49.87;33.63;;;11.80;99.90;;;;;;6188265;28;20473;-62
2022/11/15 12:11:39;;;;;;;41.20;30.40;;;11.80;99.90;;;;;;6196183;28;20988;-62
2022/11/15 12:14:46;;;;;;;43.87;30.80;;;11.90;99.90;;;;;;6194014;28;20540;-62
2022/11/15 12:17:50;;;;;;;41.73;29.43;;;12.00;99.90;;;;;;6188156;28;20480;-63
2022/11/15 12:20:58;;;;;;;38.40;27.57;;;11.90;99.90;;;;;;6188173;28;20482;-65
2022/11/15 12:24:09;;;;;;;35.70;27.87;;;11.70;99.90;;;;;;6189088;28;20474;-64
2022/11/15 12:27:19;;;;;;;37.43;27.57;;;11.70;99.90;;;;;;6193719;28;20473;-66
2022/11/15 12:30:42;;;;;;;37.57;27.63;;;11.60;99.90;;;;;;6191594;28;20674;-65
2022/11/15 12:33:47;;;;;;;44.20;26.47;;;11.50;99.90;;;;;;6187272;28;20490;-65
2022/11/15 12:36:51;;;;;;;36.60;26.23;;;11.40;99.90;;;;;;6186624;28;20499;-64
2022/11/15 12:40:25;;;;;;;36.93;27.33;;;11.30;99.90;;;;;;6188270;28;20868;-64
2022/11/15 12:43:39;;;;;;;35.53;25.40;;;11.20;99.90;;;;;;6185732;28;20496;-63
2022/11/15 12:47:05;;;;;;;40.93;27.90;;;11.20;99.90;;;;;;6187317;28;20469;-63
2022/11/15 12:50:17;;;;;;;35.33;26.17;;;11.10;99.90;;;;;;6184852;28;20484;-63
2022/11/15 12:53:31;;;;;;;35.27;26.13;;;11.00;99.90;;;;;;6186225;28;20956;-64
2022/11/15 12:56:35;;;;;;;38.70;26.60;;;10.90;99.90;;;;;;6185925;28;20810;-64
2022/11/15 12:59:53;;;;;;;47.70;30.00;;;10.70;99.90;;;;;;6186176;28;21052;-63
2022/11/15 13:03:28;;;;;;;41.73;28.20;;;10.80;99.90;;;;;;6188725;28;20485;-62
2022/11/15 13:06:43;;;;;;;44.40;27.90;;;10.80;99.90;;;;;;6185739;28;20477;-64
2022/11/15 13:09:56;;;;;;;44.97;30.10;;;10.80;99.90;;;;;;6187997;28;20497;-63
2022/11/15 13:13:02;;;;;;;40.17;28.43;;;10.90;99.90;;;;;;6185716;28;20470;-64
2022/11/15 13:16:07;;;;;;;32.93;24.40;;;10.90;99.90;;;;;;6185831;28;20572;-63
2022/11/15 13:19:11;;;;;;;40.43;26.93;;;10.80;99.90;;;;;;6185793;28;20483;-63
2022/11/15 13:26:16;;;;;;;40.70;25.37;;;10.80;99.90;;;;;;6188640;28;21618;-62
2022/11/15 13:29:21;;;;;;;36.90;25.90;;;10.80;99.90;;;;;;6186025;28;20556;-64
2022/11/15 13:32:24;;;;;;;39.40;28.70;;;10.80;99.90;;;;;;6188538;28;20477;-62
2022/11/15 13:35:30;;;;;;;40.93;29.93;;;10.80;99.90;;;;;;6191604;28;20481;-66
2022/11/15 13:38:35;;;;;;;36.87;26.17;;;10.90;99.90;;;;;;6191833;28;20540;-62
2022/11/15 13:41:52;;;;;;;33.03;24.80;;;10.90;99.90;;;;;;6193155;28;20469;-64
2022/11/15 13:44:58;;;;;;;36.13;25.90;;;10.90;99.90;;;;;;6181608;28;20484;-64
2022/11/15 13:48:06;;;;;;;34.53;23.90;;;10.90;99.90;;;;;;6190001;28;20481;-64
2022/11/15 13:51:15;;;;;;;31.47;26.17;;;10.90;99.90;;;;;;6191451;28;20473;-62
2022/11/15 13:54:24;;;;;;;36.30;26.30;;;11.00;99.90;;;;;;6189967;28;20820;-64
2022/11/15 13:57:31;;;;;;;27.80;24.33;;;11.10;99.90;;;;;;6190767;28;20839;-66
2022/11/15 14:00:41;;;;;;;31.10;23.97;;;11.20;99.90;;;;;;6189358;28;20484;-67
2022/11/15 14:03:54;;;;;;;30.00;24.20;;;11.20;99.90;;;;;;6191100;28;20492;-66
2022/11/15 14:07:00;;;;;;;35.93;27.23;;;11.10;99.90;;;;;;6191974;28;20481;-67
2022/11/15 14:10:25;;;;;;;26.77;22.37;;;11.10;99.90;;;;;;6192241;28;20565;-67
2022/11/15 14:13:30;;;;;;;31.77;23.73;;;11.10;99.90;;;;;;6190835;28;20474;-66
2022/11/15 14:16:37;;;;;;;33.80;23.30;;;11.00;99.90;;;;;;6190999;28;20469;-66
2022/11/15 14:19:41;;;;;;;32.73;21.57;;;11.00;99.90;;;;;;6190963;28;20477;-67
2022/11/15 14:22:52;;;;;;;30.17;21.07;;;11.00;99.90;;;;;;6191582;28;20445;-66
2022/11/15 14:25:57;;;;;;;29.00;21.93;;;11.00;99.90;;;;;;6190518;28;20885;-67
2022/11/15 14:29:25;;;;;;;31.63;22.77;;;11.10;99.90;;;;;;6190952;28;20466;-67
2022/11/15 14:32:31;;;;;;;32.40;21.90;;;11.10;99.90;;;;;;6189470;28;20481;-67
2022/11/15 14:35:39;;;;;;;29.17;20.80;;;10.80;99.90;;;;;;6190480;28;20474;-66
2022/11/15 14:38:43;;;;;;;32.43;22.57;;;10.70;99.90;;;;;;6192175;28;20461;-65
2022/11/15 14:41:46;;;;;;;29.80;21.97;;;10.80;99.90;;;;;;6189328;28;20472;-63
2022/11/15 14:44:49;;;;;;;22.10;18.53;;;10.80;99.90;;;;;;6189708;28;20480;-66
2022/11/15 14:47:53;;;;;;;27.60;21.33;;;10.90;99.90;;;;;;6184213;28;20486;-66
2022/11/15 14:50:57;;;;;;;25.90;20.27;;;10.90;99.90;;;;;;6189112;28;20478;-64
2022/11/15 14:54:01;;;;;;;26.50;20.37;;;10.90;99.90;;;;;;6189173;28;20496;-64
2022/11/15 14:57:04;;;;;;;24.70;18.93;;;10.90;99.90;;;;;;6191031;28;20477;-65
2022/11/15 15:00:09;;;;;;;29.87;22.33;;;10.90;99.90;;;;;;6189706;28;20481;-62
2022/11/15 15:03:14;;;;;;;32.17;22.80;;;10.90;99.90;;;;;;6188804;28;20492;-62
2022/11/15 15:06:17;;;;;;;24.83;20.63;;;10.90;99.90;;;;;;6199108;28;20488;-63
2022/11/15 15:09:21;;;;;;;29.73;24.40;;;10.90;99.90;;;;;;6190145;28;20973;-64
2022/11/15 15:12:24;;;;;;;24.23;20.00;;;10.90;99.90;;;;;;6200349;28;20481;-67
2022/11/15 15:15:32;;;;;;;29.03;22.30;;;10.80;99.90;;;;;;6197666;28;20501;-64
2022/11/15 15:18:37;;;;;;;27.37;21.13;;;10.70;99.90;;;;;;6197673;28;20493;-65
2022/11/15 15:21:40;;;;;;;25.30;20.97;;;10.70;99.90;;;;;;6188198;28;20785;-63
2022/11/15 15:24:43;;;;;;;28.20;20.70;;;10.80;99.90;;;;;;6188624;28;20492;-64
2022/11/15 15:27:46;;;;;;;31.17;23.07;;;10.80;99.90;;;;;;6186125;28;20473;-66
2022/11/15 15:30:50;;;;;;;25.20;20.70;;;10.80;99.90;;;;;;6204279;28;20810;-65
2022/11/15 15:33:54;;;;;;;27.73;20.67;;;10.90;99.90;;;;;;6191686;28;20477;-65
2022/11/15 15:37:24;;;;;;;27.73;21.93;;;10.90;99.90;;;;;;6189169;28;20469;-67
2022/11/15 15:40:30;;;;;;;26.90;22.70;;;10.80;99.90;;;;;;6207879;28;20476;-64
2022/11/15 15:43:33;;;;;;;28.50;21.23;;;10.80;99.90;;;;;;6192315;28;20480;-62
2022/11/15 15:46:37;;;;;;;30.43;22.23;;;10.80;99.90;;;;;;6187945;28;20493;-63
2022/11/15 15:49:41;;;;;;;29.97;19.40;;;10.80;99.90;;;;;;6183643;28;20842;-63
2022/11/15 15:52:45;;;;;;;24.33;19.20;;;10.90;99.90;;;;;;6210742;28;20471;-63
2022/11/15 15:55:48;;;;;;;22.40;18.87;;;10.90;99.90;;;;;;6188073;28;20486;-63